sensor_id;sensor_type;location;lat;lon;timestamp;temperature;humidity
18173;DHT22;9211;48.818;9.312;2022-08-04T00:00:53;23.40;96.50
18173;DHT22;9211;48.818;9.312;2022-08-04T00:03:27;23.20;96.90
18173;DHT22;9211;48.818;9.312;2022-08-04T00:06:01;23.30;96.60
18173;DHT22;9211;48.818;9.312;2022-08-04T00:08:33;23.20;96.70
18173;DHT22;9211;48.818;9.312;2022-08-04T00:11:03;23.10;96.80
18173;DHT22;9211;48.818;9.312;2022-08-04T00:13:36;23.10;96.80
18173;DHT22;9211;48.818;9.312;2022-08-04T00:16:06;23.00;97.50
18173;DHT22;9211;48.818;9.312;2022-08-04T00:18:34;22.90;97.30
18173;DHT22;9211;48.818;9.312;2022-08-04T00:21:06;22.90;97.30
18173;DHT22;9211;48.818;9.312;2022-08-04T00:23:37;22.80;97.50
18173;DHT22;9211;48.818;9.312;2022-08-04T00:26:06;22.70;97.50
18173;DHT22;9211;48.818;9.312;2022-08-04T00:28:35;22.70;97.70
18173;DHT22;9211;48.818;9.312;2022-08-04T00:31:03;22.70;97.70
18173;DHT22;9211;48.818;9.312;2022-08-04T00:33:31;22.60;97.90
18173;DHT22;9211;48.818;9.312;2022-08-04T00:36:00;22.50;98.30
18173;DHT22;9211;48.818;9.312;2022-08-04T00:38:29;22.50;98.30
18173;DHT22;9211;48.818;9.312;2022-08-04T00:41:06;22.50;98.50
18173;DHT22;9211;48.818;9.312;2022-08-04T00:43:40;22.50;98.60
18173;DHT22;9211;48.818;9.312;2022-08-04T00:46:27;22.40;99.00
18173;DHT22;9211;48.818;9.312;2022-08-04T00:49:30;22.20;99.60
18173;DHT22;9211;48.818;9.312;2022-08-04T00:52:15;22.30;99.20
18173;DHT22;9211;48.818;9.312;2022-08-04T00:55:02;22.30;99.30
18173;DHT22;9211;48.818;9.312;2022-08-04T00:57:40;22.40;99.50
18173;DHT22;9211;48.818;9.312;2022-08-04T01:00:13;22.40;99.00
18173;DHT22;9211;48.818;9.312;2022-08-04T01:02:56;22.50;99.20
18173;DHT22;9211;48.818;9.312;2022-08-04T01:05:33;22.40;99.60
18173;DHT22;9211;48.818;9.312;2022-08-04T01:08:15;22.30;99.90
18173;DHT22;9211;48.818;9.312;2022-08-04T01:10:51;22.10;99.90
18173;DHT22;9211;48.818;9.312;2022-08-04T01:13:30;22.00;99.90
18173;DHT22;9211;48.818;9.312;2022-08-04T01:16:04;21.80;99.90
18173;DHT22;9211;48.818;9.312;2022-08-04T01:18:51;21.80;99.90
18173;DHT22;9211;48.818;9.312;2022-08-04T01:21:37;21.70;99.90
18173;DHT22;9211;48.818;9.312;2022-08-04T01:24:25;21.60;99.90
18173;DHT22;9211;48.818;9.312;2022-08-04T01:27:01;21.80;99.90
18173;DHT22;9211;48.818;9.312;2022-08-04T01:29:33;21.80;99.90
18173;DHT22;9211;48.818;9.312;2022-08-04T01:32:03;21.80;99.90
18173;DHT22;9211;48.818;9.312;2022-08-04T01:34:34;21.70;99.90
18173;DHT22;9211;48.818;9.312;2022-08-04T01:37:10;21.70;99.90
18173;DHT22;9211;48.818;9.312;2022-08-04T01:39:43;21.60;99.90
18173;DHT22;9211;48.818;9.312;2022-08-04T01:42:19;21.50;99.90
18173;DHT22;9211;48.818;9.312;2022-08-04T01:44:49;21.50;99.90
18173;DHT22;9211;48.818;9.312;2022-08-04T01:47:20;21.40;99.90
18173;DHT22;9211;48.818;9.312;2022-08-04T01:49:49;21.40;99.90
18173;DHT22;9211;48.818;9.312;2022-08-04T01:52:17;21.40;99.90
18173;DHT22;9211;48.818;9.312;2022-08-04T01:54:45;21.50;99.90
18173;DHT22;9211;48.818;9.312;2022-08-04T01:57:14;21.60;99.90
18173;DHT22;9211;48.818;9.312;2022-08-04T01:59:44;21.50;99.90
18173;DHT22;9211;48.818;9.312;2022-08-04T02:02:12;21.30;99.90
18173;DHT22;9211;48.818;9.312;2022-08-04T02:04:40;21.30;99.90
18173;DHT22;9211;48.818;9.312;2022-08-04T02:07:19;21.30;99.90
18173;DHT22;9211;48.818;9.312;2022-08-04T02:09:56;21.20;99.90
18173;DHT22;9211;48.818;9.312;2022-08-04T02:12:34;21.20;99.90
18173;DHT22;9211;48.818;9.312;2022-08-04T02:15:08;21.30;99.90
18173;DHT22;9211;48.818;9.312;2022-08-04T02:17:48;21.30;99.90
18173;DHT22;9211;48.818;9.312;2022-08-04T02:20:29;21.30;99.90
18173;DHT22;9211;48.818;9.312;2022-08-04T02:22:59;21.30;99.90
18173;DHT22;9211;48.818;9.312;2022-08-04T02:25:28;21.30;99.90
18173;DHT22;9211;48.818;9.312;2022-08-04T02:28:03;21.20;99.90
18173;DHT22;9211;48.818;9.312;2022-08-04T02:30:42;21.20;99.90
18173;DHT22;9211;48.818;9.312;2022-08-04T02:33:16;21.10;99.90
18173;DHT22;9211;48.818;9.312;2022-08-04T02:35:45;21.00;99.90
18173;DHT22;9211;48.818;9.312;2022-08-04T02:38:23;21.00;99.90
18173;DHT22;9211;48.818;9.312;2022-08-04T02:40:53;20.90;99.90
18173;DHT22;9211;48.818;9.312;2022-08-04T02:43:24;20.90;99.90
18173;DHT22;9211;48.818;9.312;2022-08-04T02:45:55;20.90;99.90
18173;DHT22;9211;48.818;9.312;2022-08-04T02:48:26;20.80;99.90
18173;DHT22;9211;48.818;9.312;2022-08-04T02:50:55;20.70;99.90
18173;DHT22;9211;48.818;9.312;2022-08-04T02:53:27;20.70;99.90
18173;DHT22;9211;48.818;9.312;2022-08-04T02:55:57;20.80;99.90
18173;DHT22;9211;48.818;9.312;2022-08-04T02:58:30;21.00;99.90
18173;DHT22;9211;48.818;9.312;2022-08-04T03:00:59;20.90;99.90
18173;DHT22;9211;48.818;9.312;2022-08-04T03:03:34;20.70;99.90
18173;DHT22;9211;48.818;9.312;2022-08-04T03:09:57;20.70;99.90
18173;DHT22;9211;48.818;9.312;2022-08-04T03:16:00;20.80;99.90
18173;DHT22;9211;48.818;9.312;2022-08-04T03:22:07;20.70;99.90
18173;DHT22;9211;48.818;9.312;2022-08-04T03:28:28;20.70;99.90
18173;DHT22;9211;48.818;9.312;2022-08-04T03:31:32;20.80;99.90
18173;DHT22;9211;48.818;9.312;2022-08-04T03:34:17;20.70;99.90
18173;DHT22;9211;48.818;9.312;2022-08-04T03:37:07;20.70;99.90
18173;DHT22;9211;48.818;9.312;2022-08-04T03:42:56;20.70;99.90
18173;DHT22;9211;48.818;9.312;2022-08-04T03:46:05;20.70;99.90
18173;DHT22;9211;48.818;9.312;2022-08-04T03:51:52;20.60;99.90
18173;DHT22;9211;48.818;9.312;2022-08-04T03:57:57;20.70;99.90
18173;DHT22;9211;48.818;9.312;2022-08-04T04:00:40;20.60;99.90
18173;DHT22;9211;48.818;9.312;2022-08-04T04:03:40;20.60;99.90
18173;DHT22;9211;48.818;9.312;2022-08-04T04:06:40;20.60;99.90
18173;DHT22;9211;48.818;9.312;2022-08-04T04:12:42;20.50;99.90
18173;DHT22;9211;48.818;9.312;2022-08-04T04:15:24;20.60;99.90
18173;DHT22;9211;48.818;9.312;2022-08-04T04:18:19;20.50;99.90
18173;DHT22;9211;48.818;9.312;2022-08-04T04:21:11;20.60;99.90
18173;DHT22;9211;48.818;9.312;2022-08-04T04:23:56;20.50;99.90
18173;DHT22;9211;48.818;9.312;2022-08-04T04:29:59;20.60;99.90
18173;DHT22;9211;48.818;9.312;2022-08-04T04:32:37;20.70;99.90
18173;DHT22;9211;48.818;9.312;2022-08-04T04:35:22;20.70;99.90
18173;DHT22;9211;48.818;9.312;2022-08-04T04:38:16;20.60;99.90
18173;DHT22;9211;48.818;9.312;2022-08-04T04:40:55;20.70;99.90
18173;DHT22;9211;48.818;9.312;2022-08-04T04:43:50;20.60;99.90
18173;DHT22;9211;48.818;9.312;2022-08-04T04:46:36;20.50;99.90
18173;DHT22;9211;48.818;9.312;2022-08-04T04:49:13;20.50;99.90
18173;DHT22;9211;48.818;9.312;2022-08-04T04:51:48;20.40;99.90
18173;DHT22;9211;48.818;9.312;2022-08-04T04:54:23;20.50;99.90
18173;DHT22;9211;48.818;9.312;2022-08-04T04:56:59;20.50;99.90
18173;DHT22;9211;48.818;9.312;2022-08-04T04:59:31;20.60;99.90
18173;DHT22;9211;48.818;9.312;2022-08-04T05:05:24;20.70;99.90
18173;DHT22;9211;48.818;9.312;2022-08-04T05:08:20;20.80;99.90
18173;DHT22;9211;48.818;9.312;2022-08-04T05:11:09;20.70;99.90
18173;DHT22;9211;48.818;9.312;2022-08-04T05:13:42;20.70;99.90
18173;DHT22;9211;48.818;9.312;2022-08-04T05:16:16;20.80;99.90
18173;DHT22;9211;48.818;9.312;2022-08-04T05:18:48;20.80;99.90
18173;DHT22;9211;48.818;9.312;2022-08-04T05:21:36;20.90;99.90
18173;DHT22;9211;48.818;9.312;2022-08-04T05:24:09;20.90;99.90
18173;DHT22;9211;48.818;9.312;2022-08-04T05:26:44;21.00;99.90
18173;DHT22;9211;48.818;9.312;2022-08-04T05:29:17;21.00;99.90
18173;DHT22;9211;48.818;9.312;2022-08-04T05:31:52;21.00;99.90
18173;DHT22;9211;48.818;9.312;2022-08-04T05:34:23;21.10;99.90
18173;DHT22;9211;48.818;9.312;2022-08-04T05:36:57;21.20;99.90
18173;DHT22;9211;48.818;9.312;2022-08-04T05:39:27;21.30;99.90
18173;DHT22;9211;48.818;9.312;2022-08-04T05:41:57;21.30;99.90
18173;DHT22;9211;48.818;9.312;2022-08-04T05:44:27;21.40;99.90
18173;DHT22;9211;48.818;9.312;2022-08-04T05:46:55;21.50;99.90
18173;DHT22;9211;48.818;9.312;2022-08-04T05:49:26;21.60;99.90
18173;DHT22;9211;48.818;9.312;2022-08-04T05:51:58;21.70;99.90
18173;DHT22;9211;48.818;9.312;2022-08-04T05:54:27;21.70;99.90
18173;DHT22;9211;48.818;9.312;2022-08-04T05:56:56;21.90;99.90
18173;DHT22;9211;48.818;9.312;2022-08-04T05:59:24;21.90;99.90
18173;DHT22;9211;48.818;9.312;2022-08-04T06:01:55;22.00;99.90
18173;DHT22;9211;48.818;9.312;2022-08-04T06:04:25;22.10;99.90
18173;DHT22;9211;48.818;9.312;2022-08-04T06:06:55;22.10;99.90
18173;DHT22;9211;48.818;9.312;2022-08-04T06:09:22;22.20;99.90
18173;DHT22;9211;48.818;9.312;2022-08-04T06:11:50;22.30;99.90
18173;DHT22;9211;48.818;9.312;2022-08-04T06:14:20;22.40;99.90
18173;DHT22;9211;48.818;9.312;2022-08-04T06:16:49;22.50;99.90
18173;DHT22;9211;48.818;9.312;2022-08-04T06:19:18;22.60;99.90
18173;DHT22;9211;48.818;9.312;2022-08-04T06:21:48;22.70;99.90
18173;DHT22;9211;48.818;9.312;2022-08-04T06:24:23;22.80;99.90
18173;DHT22;9211;48.818;9.312;2022-08-04T06:26:52;22.90;99.90
18173;DHT22;9211;48.818;9.312;2022-08-04T06:29:21;22.90;99.90
18173;DHT22;9211;48.818;9.312;2022-08-04T06:31:53;23.10;99.90
18173;DHT22;9211;48.818;9.312;2022-08-04T06:34:27;23.20;99.90
18173;DHT22;9211;48.818;9.312;2022-08-04T06:36:55;23.20;99.90
18173;DHT22;9211;48.818;9.312;2022-08-04T06:39:27;23.40;99.90
18173;DHT22;9211;48.818;9.312;2022-08-04T06:41:55;23.50;99.90
18173;DHT22;9211;48.818;9.312;2022-08-04T06:44:23;23.60;99.90
18173;DHT22;9211;48.818;9.312;2022-08-04T06:46:52;23.60;99.90
18173;DHT22;9211;48.818;9.312;2022-08-04T06:49:20;23.70;99.90
18173;DHT22;9211;48.818;9.312;2022-08-04T06:51:49;23.80;99.90
18173;DHT22;9211;48.818;9.312;2022-08-04T06:54:16;23.90;99.90
18173;DHT22;9211;48.818;9.312;2022-08-04T06:56:44;24.00;99.90
18173;DHT22;9211;48.818;9.312;2022-08-04T06:59:13;24.10;99.90
18173;DHT22;9211;48.818;9.312;2022-08-04T07:01:43;24.20;99.90
18173;DHT22;9211;48.818;9.312;2022-08-04T07:04:12;24.40;99.90
18173;DHT22;9211;48.818;9.312;2022-08-04T07:06:39;24.50;99.90
18173;DHT22;9211;48.818;9.312;2022-08-04T07:09:07;24.50;99.90
18173;DHT22;9211;48.818;9.312;2022-08-04T07:11:34;24.60;99.90
18173;DHT22;9211;48.818;9.312;2022-08-04T07:14:03;24.70;99.90
18173;DHT22;9211;48.818;9.312;2022-08-04T07:27:24;25.00;99.90
18173;DHT22;9211;48.818;9.312;2022-08-04T07:41:54;25.10;99.90
18173;DHT22;9211;48.818;9.312;2022-08-04T07:44:21;25.50;99.90
18173;DHT22;9211;48.818;9.312;2022-08-04T07:46:48;25.50;99.90
18173;DHT22;9211;48.818;9.312;2022-08-04T07:49:15;25.60;99.90
18173;DHT22;9211;48.818;9.312;2022-08-04T07:51:42;25.70;99.90
18173;DHT22;9211;48.818;9.312;2022-08-04T07:54:10;25.70;99.90
18173;DHT22;9211;48.818;9.312;2022-08-04T07:56:40;25.80;99.90
18173;DHT22;9211;48.818;9.312;2022-08-04T07:59:08;25.80;99.90
18173;DHT22;9211;48.818;9.312;2022-08-04T08:01:36;25.80;99.90
18173;DHT22;9211;48.818;9.312;2022-08-04T08:04:05;25.90;99.90
18173;DHT22;9211;48.818;9.312;2022-08-04T08:06:34;26.00;99.90
18173;DHT22;9211;48.818;9.312;2022-08-04T08:09:09;26.10;99.90
18173;DHT22;9211;48.818;9.312;2022-08-04T08:11:36;26.10;99.90
18173;DHT22;9211;48.818;9.312;2022-08-04T08:14:03;26.10;99.90
18173;DHT22;9211;48.818;9.312;2022-08-04T08:16:34;26.10;99.90
18173;DHT22;9211;48.818;9.312;2022-08-04T08:19:03;26.20;99.90
18173;DHT22;9211;48.818;9.312;2022-08-04T08:21:30;26.20;99.90
18173;DHT22;9211;48.818;9.312;2022-08-04T08:23:58;26.30;99.90
18173;DHT22;9211;48.818;9.312;2022-08-04T08:26:25;26.40;99.90
18173;DHT22;9211;48.818;9.312;2022-08-04T08:28:53;26.50;99.90
18173;DHT22;9211;48.818;9.312;2022-08-04T08:31:20;26.60;99.80
18173;DHT22;9211;48.818;9.312;2022-08-04T08:33:49;26.50;99.50
18173;DHT22;9211;48.818;9.312;2022-08-04T08:36:23;26.60;99.40
18173;DHT22;9211;48.818;9.312;2022-08-04T08:38:58;26.60;99.30
18173;DHT22;9211;48.818;9.312;2022-08-04T08:47:42;26.80;98.20
18173;DHT22;9211;48.818;9.312;2022-08-04T08:50:45;26.90;97.20
18173;DHT22;9211;48.818;9.312;2022-08-04T08:53:26;27.00;97.60
18173;DHT22;9211;48.818;9.312;2022-08-04T08:56:13;27.10;97.90
18173;DHT22;9211;48.818;9.312;2022-08-04T08:58:50;27.00;98.00
18173;DHT22;9211;48.818;9.312;2022-08-04T09:01:34;27.00;97.80
18173;DHT22;9211;48.818;9.312;2022-08-04T09:07:26;27.10;96.80
18173;DHT22;9211;48.818;9.312;2022-08-04T09:10:08;27.20;96.80
18173;DHT22;9211;48.818;9.312;2022-08-04T09:12:44;27.30;96.20
18173;DHT22;9211;48.818;9.312;2022-08-04T09:15:14;27.30;96.10
18173;DHT22;9211;48.818;9.312;2022-08-04T09:17:47;27.40;95.60
18173;DHT22;9211;48.818;9.312;2022-08-04T09:20:23;27.50;95.20
18173;DHT22;9211;48.818;9.312;2022-08-04T09:22:58;27.60;94.90
18173;DHT22;9211;48.818;9.312;2022-08-04T09:25:30;27.70;94.70
18173;DHT22;9211;48.818;9.312;2022-08-04T09:28:03;27.70;94.10
18173;DHT22;9211;48.818;9.312;2022-08-04T09:30:37;27.90;92.60
18173;DHT22;9211;48.818;9.312;2022-08-04T09:33:13;28.10;91.90
18173;DHT22;9211;48.818;9.312;2022-08-04T09:35:50;28.20;92.60
18173;DHT22;9211;48.818;9.312;2022-08-04T09:38:28;28.10;93.10
18173;DHT22;9211;48.818;9.312;2022-08-04T09:41:10;28.20;93.20
18173;DHT22;9211;48.818;9.312;2022-08-04T09:43:48;28.30;93.30
18173;DHT22;9211;48.818;9.312;2022-08-04T09:46:22;28.30;92.40
18173;DHT22;9211;48.818;9.312;2022-08-04T09:48:57;28.50;91.70
18173;DHT22;9211;48.818;9.312;2022-08-04T09:51:45;28.80;92.30
18173;DHT22;9211;48.818;9.312;2022-08-04T09:54:22;29.00;91.60
18173;DHT22;9211;48.818;9.312;2022-08-04T09:56:57;29.20;92.00
18173;DHT22;9211;48.818;9.312;2022-08-04T09:59:31;29.50;92.10
18173;DHT22;9211;48.818;9.312;2022-08-04T10:02:05;29.60;90.90
18173;DHT22;9211;48.818;9.312;2022-08-04T10:04:34;29.80;90.40
18173;DHT22;9211;48.818;9.312;2022-08-04T10:07:18;30.00;89.60
18173;DHT22;9211;48.818;9.312;2022-08-04T10:10:02;30.20;88.70
18173;DHT22;9211;48.818;9.312;2022-08-04T10:12:37;30.40;88.30
18173;DHT22;9211;48.818;9.312;2022-08-04T10:15:09;30.50;84.90
18173;DHT22;9211;48.818;9.312;2022-08-04T10:18:08;30.60;84.80
18173;DHT22;9211;48.818;9.312;2022-08-04T10:20:57;30.80;82.70
18173;DHT22;9211;48.818;9.312;2022-08-04T10:23:39;30.90;82.70
18173;DHT22;9211;48.818;9.312;2022-08-04T10:26:26;30.90;83.00
18173;DHT22;9211;48.818;9.312;2022-08-04T10:28:57;31.10;82.20
18173;DHT22;9211;48.818;9.312;2022-08-04T10:31:29;31.30;81.70
18173;DHT22;9211;48.818;9.312;2022-08-04T10:34:04;31.40;79.50
18173;DHT22;9211;48.818;9.312;2022-08-04T10:36:40;31.60;79.30
18173;DHT22;9211;48.818;9.312;2022-08-04T10:39:13;31.70;76.30
18173;DHT22;9211;48.818;9.312;2022-08-04T10:41:51;31.80;77.90
18173;DHT22;9211;48.818;9.312;2022-08-04T10:44:27;31.90;77.60
18173;DHT22;9211;48.818;9.312;2022-08-04T10:47:03;32.00;75.10
18173;DHT22;9211;48.818;9.312;2022-08-04T10:49:34;32.00;75.50
18173;DHT22;9211;48.818;9.312;2022-08-04T10:52:06;32.10;75.90
18173;DHT22;9211;48.818;9.312;2022-08-04T10:54:40;32.40;75.40
18173;DHT22;9211;48.818;9.312;2022-08-04T10:57:19;32.50;74.40
18173;DHT22;9211;48.818;9.312;2022-08-04T10:59:54;32.70;74.10
18173;DHT22;9211;48.818;9.312;2022-08-04T11:02:33;32.80;74.40
18173;DHT22;9211;48.818;9.312;2022-08-04T11:05:11;32.80;71.90
18173;DHT22;9211;48.818;9.312;2022-08-04T11:07:41;32.80;69.70
18173;DHT22;9211;48.818;9.312;2022-08-04T11:10:09;32.90;69.60
18173;DHT22;9211;48.818;9.312;2022-08-04T11:12:41;32.90;66.80
18173;DHT22;9211;48.818;9.312;2022-08-04T11:15:14;32.90;67.00
18173;DHT22;9211;48.818;9.312;2022-08-04T11:17:47;33.00;66.70
18173;DHT22;9211;48.818;9.312;2022-08-04T11:20:25;33.10;66.50
18173;DHT22;9211;48.818;9.312;2022-08-04T11:22:58;33.30;66.20
18173;DHT22;9211;48.818;9.312;2022-08-04T11:25:33;33.40;65.70
18173;DHT22;9211;48.818;9.312;2022-08-04T11:28:10;33.50;65.80
18173;DHT22;9211;48.818;9.312;2022-08-04T11:30:42;33.70;65.40
18173;DHT22;9211;48.818;9.312;2022-08-04T11:33:21;33.70;65.00
18173;DHT22;9211;48.818;9.312;2022-08-04T11:35:54;33.80;64.90
18173;DHT22;9211;48.818;9.312;2022-08-04T11:38:27;33.80;65.50
18173;DHT22;9211;48.818;9.312;2022-08-04T11:41:01;34.00;64.60
18173;DHT22;9211;48.818;9.312;2022-08-04T11:43:38;34.00;62.90
18173;DHT22;9211;48.818;9.312;2022-08-04T11:46:11;34.10;62.10
18173;DHT22;9211;48.818;9.312;2022-08-04T11:48:47;34.10;61.10
18173;DHT22;9211;48.818;9.312;2022-08-04T11:51:19;34.20;62.70
18173;DHT22;9211;48.818;9.312;2022-08-04T11:53:47;34.40;61.60
18173;DHT22;9211;48.818;9.312;2022-08-04T11:56:15;34.40;60.70
18173;DHT22;9211;48.818;9.312;2022-08-04T11:58:43;34.60;60.80
18173;DHT22;9211;48.818;9.312;2022-08-04T12:01:16;34.70;60.00
18173;DHT22;9211;48.818;9.312;2022-08-04T12:03:58;34.80;59.20
18173;DHT22;9211;48.818;9.312;2022-08-04T12:06:31;34.90;59.00
18173;DHT22;9211;48.818;9.312;2022-08-04T12:09:08;35.00;58.70
18173;DHT22;9211;48.818;9.312;2022-08-04T12:11:45;35.00;57.20
18173;DHT22;9211;48.818;9.312;2022-08-04T12:14:27;35.10;57.40
18173;DHT22;9211;48.818;9.312;2022-08-04T12:16:58;35.20;57.30
18173;DHT22;9211;48.818;9.312;2022-08-04T12:19:30;35.30;58.00
18173;DHT22;9211;48.818;9.312;2022-08-04T12:22:03;35.50;58.60
18173;DHT22;9211;48.818;9.312;2022-08-04T12:24:33;35.60;57.80
18173;DHT22;9211;48.818;9.312;2022-08-04T12:27:14;35.70;57.10
18173;DHT22;9211;48.818;9.312;2022-08-04T12:29:45;35.70;56.60
18173;DHT22;9211;48.818;9.312;2022-08-04T12:32:20;35.70;55.60
18173;DHT22;9211;48.818;9.312;2022-08-04T12:34:56;35.80;55.20
18173;DHT22;9211;48.818;9.312;2022-08-04T12:37:32;35.70;55.40
18173;DHT22;9211;48.818;9.312;2022-08-04T12:40:07;35.70;55.20
18173;DHT22;9211;48.818;9.312;2022-08-04T12:42:44;35.70;54.90
18173;DHT22;9211;48.818;9.312;2022-08-04T12:45:16;35.70;54.40
18173;DHT22;9211;48.818;9.312;2022-08-04T12:47:45;35.80;55.10
18173;DHT22;9211;48.818;9.312;2022-08-04T12:50:13;35.90;55.90
18173;DHT22;9211;48.818;9.312;2022-08-04T12:52:47;36.00;55.90
18173;DHT22;9211;48.818;9.312;2022-08-04T12:55:16;36.20;55.40
18173;DHT22;9211;48.818;9.312;2022-08-04T12:57:44;36.20;53.70
18173;DHT22;9211;48.818;9.312;2022-08-04T13:00:24;36.20;53.40
18173;DHT22;9211;48.818;9.312;2022-08-04T13:02:53;36.30;54.00
18173;DHT22;9211;48.818;9.312;2022-08-04T13:05:25;36.40;54.30
18173;DHT22;9211;48.818;9.312;2022-08-04T13:07:56;36.40;53.00
18173;DHT22;9211;48.818;9.312;2022-08-04T13:10:23;36.30;53.10
18173;DHT22;9211;48.818;9.312;2022-08-04T13:12:54;36.40;53.80
18173;DHT22;9211;48.818;9.312;2022-08-04T13:15:24;36.40;53.00
18173;DHT22;9211;48.818;9.312;2022-08-04T13:17:56;36.40;53.30
18173;DHT22;9211;48.818;9.312;2022-08-04T13:20:26;36.30;52.40
18173;DHT22;9211;48.818;9.312;2022-08-04T13:23:04;36.30;52.70
18173;DHT22;9211;48.818;9.312;2022-08-04T13:25:32;36.40;52.60
18173;DHT22;9211;48.818;9.312;2022-08-04T13:28:01;36.20;52.30
18173;DHT22;9211;48.818;9.312;2022-08-04T13:30:30;36.30;53.30
18173;DHT22;9211;48.818;9.312;2022-08-04T13:33:00;36.50;54.00
18173;DHT22;9211;48.818;9.312;2022-08-04T13:35:28;36.50;51.70
18173;DHT22;9211;48.818;9.312;2022-08-04T13:37:56;36.50;51.90
18173;DHT22;9211;48.818;9.312;2022-08-04T13:40:26;36.60;52.30
18173;DHT22;9211;48.818;9.312;2022-08-04T13:42:53;36.60;51.60
18173;DHT22;9211;48.818;9.312;2022-08-04T13:45:23;36.60;51.30
18173;DHT22;9211;48.818;9.312;2022-08-04T13:47:58;36.80;51.80
18173;DHT22;9211;48.818;9.312;2022-08-04T13:50:28;37.00;51.40
18173;DHT22;9211;48.818;9.312;2022-08-04T13:52:57;37.00;51.50
18173;DHT22;9211;48.818;9.312;2022-08-04T13:55:27;37.20;51.00
18173;DHT22;9211;48.818;9.312;2022-08-04T13:58:03;37.30;50.90
18173;DHT22;9211;48.818;9.312;2022-08-04T14:00:41;37.40;50.20
18173;DHT22;9211;48.818;9.312;2022-08-04T14:03:13;37.30;49.50
18173;DHT22;9211;48.818;9.312;2022-08-04T14:05:41;37.20;50.40
18173;DHT22;9211;48.818;9.312;2022-08-04T14:08:15;37.20;50.50
18173;DHT22;9211;48.818;9.312;2022-08-04T14:10:52;37.40;49.90
18173;DHT22;9211;48.818;9.312;2022-08-04T14:13:28;37.40;50.10
18173;DHT22;9211;48.818;9.312;2022-08-04T14:15:57;37.30;50.00
18173;DHT22;9211;48.818;9.312;2022-08-04T14:18:27;37.30;50.00
18173;DHT22;9211;48.818;9.312;2022-08-04T14:20:58;37.20;50.10
18173;DHT22;9211;48.818;9.312;2022-08-04T14:23:26;37.40;50.30
18173;DHT22;9211;48.818;9.312;2022-08-04T14:25:53;37.50;50.60
18173;DHT22;9211;48.818;9.312;2022-08-04T14:28:27;37.70;50.50
18173;DHT22;9211;48.818;9.312;2022-08-04T14:31:08;37.90;50.60
18173;DHT22;9211;48.818;9.312;2022-08-04T14:33:39;38.00;50.70
18173;DHT22;9211;48.818;9.312;2022-08-04T14:36:07;38.20;50.50
18173;DHT22;9211;48.818;9.312;2022-08-04T14:38:49;38.20;49.30
18173;DHT22;9211;48.818;9.312;2022-08-04T14:41:18;38.20;49.70
18173;DHT22;9211;48.818;9.312;2022-08-04T14:43:47;38.30;49.10
18173;DHT22;9211;48.818;9.312;2022-08-04T14:46:15;38.40;48.90
18173;DHT22;9211;48.818;9.312;2022-08-04T14:49:07;38.40;48.30
18173;DHT22;9211;48.818;9.312;2022-08-04T14:51:39;38.50;48.10
18173;DHT22;9211;48.818;9.312;2022-08-04T14:54:08;38.40;48.30
18173;DHT22;9211;48.818;9.312;2022-08-04T14:56:37;38.20;48.20
18173;DHT22;9211;48.818;9.312;2022-08-04T14:59:06;38.10;48.60
18173;DHT22;9211;48.818;9.312;2022-08-04T15:01:35;37.90;48.50
18173;DHT22;9211;48.818;9.312;2022-08-04T15:04:06;37.80;48.40
18173;DHT22;9211;48.818;9.312;2022-08-04T15:06:33;37.70;49.40
18173;DHT22;9211;48.818;9.312;2022-08-04T15:09:02;37.50;49.20
18173;DHT22;9211;48.818;9.312;2022-08-04T15:11:30;37.40;49.80
18173;DHT22;9211;48.818;9.312;2022-08-04T15:13:57;37.40;50.40
18173;DHT22;9211;48.818;9.312;2022-08-04T15:16:26;37.50;49.40
18173;DHT22;9211;48.818;9.312;2022-08-04T15:18:54;37.70;49.10
18173;DHT22;9211;48.818;9.312;2022-08-04T15:21:24;37.70;48.60
18173;DHT22;9211;48.818;9.312;2022-08-04T15:23:53;37.80;48.90
18173;DHT22;9211;48.818;9.312;2022-08-04T15:26:26;38.00;48.60
18173;DHT22;9211;48.818;9.312;2022-08-04T15:28:57;38.30;48.50
18173;DHT22;9211;48.818;9.312;2022-08-04T15:31:26;38.40;47.40
18173;DHT22;9211;48.818;9.312;2022-08-04T15:33:55;38.50;47.50
18173;DHT22;9211;48.818;9.312;2022-08-04T15:36:34;38.60;47.30
18173;DHT22;9211;48.818;9.312;2022-08-04T15:39:05;38.70;46.70
18173;DHT22;9211;48.818;9.312;2022-08-04T15:41:45;38.70;46.50
18173;DHT22;9211;48.818;9.312;2022-08-04T15:44:45;38.80;46.60
18173;DHT22;9211;48.818;9.312;2022-08-04T15:47:15;38.90;47.00
18173;DHT22;9211;48.818;9.312;2022-08-04T15:49:42;38.90;46.20
18173;DHT22;9211;48.818;9.312;2022-08-04T15:52:12;38.90;46.10
18173;DHT22;9211;48.818;9.312;2022-08-04T15:54:41;38.80;46.10
18173;DHT22;9211;48.818;9.312;2022-08-04T15:57:09;38.70;46.30
18173;DHT22;9211;48.818;9.312;2022-08-04T16:00:01;38.80;46.70
18173;DHT22;9211;48.818;9.312;2022-08-04T16:02:39;38.70;46.30
18173;DHT22;9211;48.818;9.312;2022-08-04T16:05:33;38.80;46.30
18173;DHT22;9211;48.818;9.312;2022-08-04T16:08:14;38.80;46.60
18173;DHT22;9211;48.818;9.312;2022-08-04T16:10:43;38.90;46.50
18173;DHT22;9211;48.818;9.312;2022-08-04T16:13:11;39.00;46.30
18173;DHT22;9211;48.818;9.312;2022-08-04T16:15:44;39.20;46.30
18173;DHT22;9211;48.818;9.312;2022-08-04T16:18:17;39.30;46.20
18173;DHT22;9211;48.818;9.312;2022-08-04T16:20:46;39.30;46.10
18173;DHT22;9211;48.818;9.312;2022-08-04T16:26:08;39.30;45.80
18173;DHT22;9211;48.818;9.312;2022-08-04T16:28:36;39.30;46.50
18173;DHT22;9211;48.818;9.312;2022-08-04T16:31:06;39.30;46.00
18173;DHT22;9211;48.818;9.312;2022-08-04T16:33:34;39.30;46.10
18173;DHT22;9211;48.818;9.312;2022-08-04T16:36:02;39.40;46.50
18173;DHT22;9211;48.818;9.312;2022-08-04T16:38:30;39.40;46.90
18173;DHT22;9211;48.818;9.312;2022-08-04T16:40:59;39.40;46.00
18173;DHT22;9211;48.818;9.312;2022-08-04T16:43:28;39.30;46.00
18173;DHT22;9211;48.818;9.312;2022-08-04T16:45:56;39.10;46.90
18173;DHT22;9211;48.818;9.312;2022-08-04T16:48:26;39.20;47.50
18173;DHT22;9211;48.818;9.312;2022-08-04T16:50:59;39.10;46.70
18173;DHT22;9211;48.818;9.312;2022-08-04T16:53:28;39.00;46.50
18173;DHT22;9211;48.818;9.312;2022-08-04T16:56:00;39.00;46.30
18173;DHT22;9211;48.818;9.312;2022-08-04T16:58:29;39.00;46.70
18173;DHT22;9211;48.818;9.312;2022-08-04T17:00:58;39.00;46.90
18173;DHT22;9211;48.818;9.312;2022-08-04T17:03:31;39.10;47.20
18173;DHT22;9211;48.818;9.312;2022-08-04T17:06:06;39.10;47.10
18173;DHT22;9211;48.818;9.312;2022-08-04T17:08:33;39.00;47.20
18173;DHT22;9211;48.818;9.312;2022-08-04T17:11:04;38.90;47.00
18173;DHT22;9211;48.818;9.312;2022-08-04T17:13:32;38.80;46.70
18173;DHT22;9211;48.818;9.312;2022-08-04T17:16:01;38.80;46.30
18173;DHT22;9211;48.818;9.312;2022-08-04T17:18:30;38.70;45.70
18173;DHT22;9211;48.818;9.312;2022-08-04T17:21:03;38.70;45.90
18173;DHT22;9211;48.818;9.312;2022-08-04T17:23:34;38.60;45.60
18173;DHT22;9211;48.818;9.312;2022-08-04T17:26:05;38.60;45.60
18173;DHT22;9211;48.818;9.312;2022-08-04T17:28:32;38.50;45.70
18173;DHT22;9211;48.818;9.312;2022-08-04T17:31:01;38.50;46.10
18173;DHT22;9211;48.818;9.312;2022-08-04T17:33:29;38.30;45.80
18173;DHT22;9211;48.818;9.312;2022-08-04T17:35:57;38.20;45.90